Time;durP1;ratioP1;P1;durP2;ratioP2;P2;SDS_P1;SDS_P2;PMS_P1;PMS_P2;Temp;Humidity;BMP_temperature;BMP_pressure;BME280_temperature;BME280_humidity;BME280_pressure;Samples;Min_cycle;Max_cycle;Signal;HPM_P1;HPM_P2
2022/11/10 00:02:24;;;;;;;;;;;10.30;99.90;;;;;;5036824;28;19936;-72
2022/11/10 00:04:49;;;;;;;;;;;10.30;99.90;;;;;;5029893;28;20311;-72
2022/11/10 00:07:15;;;;;;;;;;;10.30;99.90;;;;;;5050700;28;19921;-72
2022/11/10 00:09:40;;;;;;;;;;;10.20;99.90;;;;;;5050787;28;20035;-72
2022/11/10 00:12:06;;;;;;;;;;;10.30;99.90;;;;;;5050764;28;19928;-72
2022/11/10 00:17:15;;;;;;;;;;;10.30;99.90;;;;;;5055876;28;19927;-72
2022/11/10 00:19:41;;;;;;;;;;;10.10;99.90;;;;;;5047105;28;20319;-72
2022/11/10 00:22:06;;;;;;;;;;;10.30;99.90;;;;;;5034708;28;19987;-72
2022/11/10 00:27:05;;;;;;;;;;;10.30;99.90;;;;;;5076351;22;19978;-70
2022/11/10 00:29:30;;;;;;;;;;;10.20;99.90;;;;;;5036279;28;19921;-70
2022/11/10 00:31:56;;;;;;;;;;;10.20;99.90;;;;;;5036319;28;19921;-70
2022/11/10 00:34:21;;;;;;;;;;;10.40;99.90;;;;;;5033916;28;20008;-71
2022/11/10 00:36:47;;;;;;;;;;;10.30;99.90;;;;;;5019644;28;20387;-70
2022/11/10 00:39:12;;;;;;;;;;;10.40;99.90;;;;;;5016155;28;19921;-70
2022/11/10 00:41:38;;;;;;;;;;;10.40;99.90;;;;;;5015830;28;19927;-70
2022/11/10 00:44:03;;;;;;;;;;;10.10;99.90;;;;;;5015450;28;19929;-70
2022/11/10 00:46:29;;;;;;;;;;;10.20;99.90;;;;;;5016030;28;19929;-70
2022/11/10 00:48:54;;;;;;;;;;;10.50;99.90;;;;;;5014810;28;19972;-70
2022/11/10 00:51:21;;;;;;;;;;;10.30;99.90;;;;;;5014855;28;20391;-71
2022/11/10 00:53:47;;;;;;;;;;;10.20;99.90;;;;;;5015122;28;20011;-70
2022/11/10 00:56:13;;;;;;;;;;;10.30;99.90;;;;;;5013988;28;20015;-70
2022/11/10 00:58:38;;;;;;;;;;;10.20;99.90;;;;;;5029300;28;19920;-69
2022/11/10 01:01:04;;;;;;;;;;;10.40;99.90;;;;;;5017250;28;19925;-70
2022/11/10 01:03:30;;;;;;;;;;;10.10;99.90;;;;;;5035420;28;20410;-69
2022/11/10 01:05:56;;;;;;;;;;;10.10;99.90;;;;;;5034247;28;19920;-69
2022/11/10 01:08:21;;;;;;;;;;;10.20;99.90;;;;;;5026759;28;19929;-70
2022/11/10 01:10:47;;;;;;;;;;;10.10;99.90;;;;;;5014049;28;20364;-69
2022/11/10 01:13:13;;;;;;;;;;;10.20;99.90;;;;;;5014408;28;20292;-69
2022/11/10 01:15:39;;;;;;;;;;;9.90;99.90;;;;;;5013338;28;20020;-69
2022/11/10 01:18:04;;;;;;;;;;;10.10;99.90;;;;;;5016284;28;19984;-69
2022/11/10 01:20:31;;;;;;;;;;;10.30;99.90;;;;;;5016807;28;19921;-69
2022/11/10 01:22:57;;;;;;;;;;;;;;;;;;5016081;28;19925;-70
2022/11/10 01:25:23;;;;;;;;;;;10.10;99.90;;;;;;5015233;28;20397;-69
2022/11/10 01:27:49;;;;;;;;;;;9.80;99.90;;;;;;5013459;28;19921;-69
2022/11/10 01:30:14;;;;;;;;;;;10.10;99.90;;;;;;5013897;28;19944;-69
2022/11/10 01:32:40;;;;;;;;;;;10.20;99.90;;;;;;5014038;28;20387;-69
2022/11/10 01:35:05;;;;;;;;;;;10.00;99.90;;;;;;5012920;28;19921;-69
2022/11/10 01:37:31;;;;;;;;;;;9.90;99.90;;;;;;5013779;28;20395;-69
2022/11/10 01:39:56;;;;;;;;;;;9.70;99.90;;;;;;5013733;28;19925;-69
2022/11/10 01:42:26;;;;;;;;;;;10.00;99.90;;;;;;5016184;28;19995;-69
2022/11/10 01:45:11;;;;;;;;;;;9.90;99.90;;;;;;5012784;28;19928;-71
2022/11/10 01:47:36;;;;;;;;;;;10.20;99.90;;;;;;5013491;28;19972;-69
2022/11/10 01:50:02;;;;;;;;;;;10.10;99.90;;;;;;5013486;28;19969;-69
2022/11/10 01:52:27;;;;;;;;;;;10.00;99.90;;;;;;5028099;28;19922;-69
2022/11/10 01:54:53;;;;;;;;;;;10.10;99.90;;;;;;5032400;28;19963;-69
2022/11/10 01:57:18;;;;;;;;;;;10.00;99.90;;;;;;5031769;28;20371;-69
2022/11/10 01:59:45;;;;;;;;;;;10.00;99.90;;;;;;5034594;28;19957;-69
2022/11/10 02:02:16;;;;;;;;;;;10.00;99.90;;;;;;5033999;28;20424;-69
2022/11/10 02:04:41;;;;;;;;;;;10.10;99.90;;;;;;5016009;28;19991;-69
2022/11/10 02:07:07;;;;;;;;;;;10.10;99.90;;;;;;5032911;28;20390;-69
2022/11/10 02:09:33;;;;;;;;;;;10.10;99.90;;;;;;5033317;28;19925;-69
2022/11/10 02:11:58;;;;;;;;;;;10.00;99.90;;;;;;5033136;28;20008;-69
2022/11/10 02:14:24;;;;;;;;;;;10.10;99.90;;;;;;5030619;28;19922;-69
2022/11/10 02:16:50;;;;;;;;;;;9.90;99.90;;;;;;5032661;28;19925;-71
2022/11/10 02:19:21;;;;;;;;;;;9.80;99.90;;;;;;5032886;28;20008;-69
2022/11/10 02:21:47;;;;;;;;;;;10.10;99.90;;;;;;5032591;28;20454;-69
2022/11/10 02:24:12;;;;;;;;;;;10.20;99.90;;;;;;5031373;28;19972;-69
2022/11/10 02:26:47;;;;;;;;;;;10.30;99.90;;;;;;5014331;28;19921;-69
2022/11/10 02:29:12;;;;;;;;;;;10.00;99.90;;;;;;5014151;28;20013;-69
2022/11/10 02:31:38;;;;;;;;;;;9.90;99.90;;;;;;5013863;28;20068;-69
2022/11/10 02:34:03;;;;;;;;;;;9.90;99.90;;;;;;5012982;28;19926;-69
2022/11/10 02:36:29;;;;;;;;;;;10.00;99.90;;;;;;5013911;28;19925;-69
2022/11/10 02:38:54;;;;;;;;;;;10.30;99.90;;;;;;5018711;28;20292;-69
2022/11/10 02:41:20;;;;;;;;;;;10.20;99.90;;;;;;5033609;28;19947;-69
2022/11/10 02:43:45;;;;;;;;;;;10.00;99.90;;;;;;5031874;28;19921;-69
2022/11/10 02:46:11;;;;;;;;;;;10.30;99.90;;;;;;5004021;28;20479;-69
2022/11/10 02:48:36;;;;;;;;;;;10.10;99.90;;;;;;5012851;28;20000;-69
2022/11/10 02:51:02;;;;;;;;;;;10.10;99.90;;;;;;4996036;28;19925;-69
2022/11/10 02:53:27;;;;;;;;;;;10.30;99.90;;;;;;5012322;28;19922;-69
2022/11/10 02:55:53;;;;;;;;;;;10.20;99.90;;;;;;5012423;28;19925;-69
2022/11/10 02:58:18;;;;;;;;;;;10.20;99.90;;;;;;5013564;28;19976;-69
2022/11/10 03:00:44;;;;;;;;;;;10.20;99.90;;;;;;5013380;28;19921;-69
2022/11/10 03:03:10;;;;;;;;;;;;;;;;;;5012337;28;19976;-70
2022/11/10 03:05:35;;;;;;;;;;;10.20;99.90;;;;;;5012805;28;20000;-69
2022/11/10 03:08:01;;;;;;;;;;;10.30;99.90;;;;;;5013518;28;19922;-69
2022/11/10 03:10:27;;;;;;;;;;;10.40;99.90;;;;;;5012299;28;20331;-69
2022/11/10 03:12:54;;;;;;;;;;;10.30;99.90;;;;;;5032990;28;19975;-69
2022/11/10 03:15:19;;;;;;;;;;;10.20;99.90;;;;;;5030830;28;19921;-69
2022/11/10 03:17:45;;;;;;;;;;;10.30;99.90;;;;;;5032766;28;19929;-69
2022/11/10 03:20:10;;;;;;;;;;;10.30;99.90;;;;;;5033035;28;19974;-69
2022/11/10 03:22:36;;;;;;;;;;;10.10;99.90;;;;;;5032867;28;19925;-70
2022/11/10 03:25:02;;;;;;;;;;;10.30;99.90;;;;;;5023166;28;19964;-69
2022/11/10 03:27:27;;;;;;;;;;;10.20;99.90;;;;;;5024539;28;19943;-69
2022/11/10 03:29:52;;;;;;;;;;;10.00;99.90;;;;;;5031443;28;19932;-69
2022/11/10 03:32:18;;;;;;;;;;;10.10;99.90;;;;;;5014867;28;19925;-69
2022/11/10 03:34:43;;;;;;;;;;;10.20;99.90;;;;;;5032021;28;20455;-68
2022/11/10 03:37:09;;;;;;;;;;;;;;;;;;5014936;28;20378;-69
2022/11/10 03:39:35;;;;;;;;;;;10.00;99.90;;;;;;5026119;28;19961;-69
2022/11/10 03:42:00;;;;;;;;;;;10.20;99.90;;;;;;5011706;28;20307;-69
2022/11/10 03:44:26;;;;;;;;;;;10.20;99.90;;;;;;4996412;28;20017;-70
2022/11/10 03:46:51;;;;;;;;;;;10.40;99.90;;;;;;5013746;28;20319;-69
2022/11/10 03:49:17;;;;;;;;;;;10.20;99.90;;;;;;5014508;28;19980;-68
2022/11/10 03:51:42;;;;;;;;;;;10.20;99.90;;;;;;5013621;28;19921;-68
2022/11/10 03:54:08;;;;;;;;;;;10.20;99.90;;;;;;5022145;28;19932;-68
2022/11/10 03:56:33;;;;;;;;;;;10.20;99.90;;;;;;5015873;28;19925;-69
2022/11/10 03:58:58;;;;;;;;;;;10.20;99.90;;;;;;5012596;28;19928;-69
2022/11/10 04:01:24;;;;;;;;;;;10.10;99.90;;;;;;5012419;28;20383;-68
2022/11/10 04:03:49;;;;;;;;;;;10.60;99.90;;;;;;5011957;28;19931;-68
2022/11/10 04:09:00;;;;;;;;;;;10.40;99.90;;;;;;5011470;28;20343;-68
2022/11/10 04:16:54;;;;;;;;;;;10.40;99.90;;;;;;5011072;28;19929;-68
2022/11/10 04:19:20;;;;;;;;;;;10.30;99.90;;;;;;5011147;28;20299;-68
2022/11/10 04:21:46;;;;;;;;;;;10.50;99.90;;;;;;5011757;28;19925;-68
2022/11/10 04:24:11;;;;;;;;;;;10.50;99.90;;;;;;5029831;28;19925;-68
2022/11/10 04:26:37;;;;;;;;;;;10.40;99.90;;;;;;5012254;28;20051;-68
2022/11/10 04:29:04;;;;;;;;;;;10.40;99.90;;;;;;5032223;28;20346;-68
2022/11/10 04:31:31;;;;;;;;;;;10.40;99.90;;;;;;5030686;28;19921;-68
2022/11/10 04:33:57;;;;;;;;;;;10.40;99.90;;;;;;5031027;28;19921;-68
2022/11/10 04:36:24;;;;;;;;;;;10.30;99.90;;;;;;5030877;28;20003;-69
2022/11/10 04:38:50;;;;;;;;;;;10.40;99.90;;;;;;5032652;28;19921;-68
2022/11/10 04:41:16;;;;;;;;;;;10.50;99.90;;;;;;5030610;28;20403;-68
2022/11/10 04:43:41;;;;;;;;;;;10.50;99.90;;;;;;5015876;28;19977;-68
2022/11/10 04:46:20;;;;;;;;;;;10.50;99.90;;;;;;5011468;28;19922;-69
2022/11/10 04:48:46;;;;;;;;;;;10.40;99.90;;;;;;5010837;28;19921;-68
2022/11/10 04:51:11;;;;;;;;;;;10.50;99.90;;;;;;5010766;28;20379;-69
2022/11/10 04:53:37;;;;;;;;;;;10.60;99.90;;;;;;5011239;28;19929;-68
2022/11/10 04:56:02;;;;;;;;;;;10.60;99.90;;;;;;5009957;28;19978;-68
2022/11/10 04:58:28;;;;;;;;;;;10.20;99.90;;;;;;5011754;28;19921;-68
2022/11/10 05:00:53;;;;;;;;;;;10.40;99.90;;;;;;5012277;28;19921;-68
2022/11/10 05:03:19;;;;;;;;;;;10.30;99.90;;;;;;4998298;28;20303;-68
2022/11/10 05:05:44;;;;;;;;;;;10.60;99.90;;;;;;5014796;28;20315;-68
2022/11/10 05:08:10;;;;;;;;;;;10.30;99.90;;;;;;5014233;28;19921;-68
2022/11/10 05:10:36;;;;;;;;;;;10.30;99.90;;;;;;5015727;28;19922;-68
2022/11/10 05:13:03;;;;;;;;;;;10.50;99.90;;;;;;5012647;28;20399;-67
2022/11/10 05:15:29;;;;;;;;;;;10.50;99.90;;;;;;5015361;28;20302;-67
2022/11/10 05:17:54;;;;;;;;;;;10.40;99.90;;;;;;5014059;28;19921;-67
2022/11/10 05:20:21;;;;;;;;;;;10.60;99.90;;;;;;4998047;28;19922;-67
2022/11/10 05:23:36;;;;;;;;;;;10.40;99.90;;;;;;4997925;28;19925;-68
2022/11/10 05:25:34;;;;;;;;;;;10.20;99.90;;;;;;5014061;28;20280;-67
2022/11/10 05:27:59;;;;;;;;;;;10.40;99.90;;;;;;5033880;28;20280;-68
2022/11/10 05:30:25;;;;;;;;;;;10.30;99.90;;;;;;5034896;28;19928;-67
2022/11/10 05:32:50;;;;;;;;;;;10.40;99.90;;;;;;5022903;28;19921;-68
2022/11/10 05:35:16;;;;;;;;;;;10.40;99.90;;;;;;5013270;28;19921;-67
2022/11/10 05:37:41;;;;;;;;;;;10.40;99.90;;;;;;5015214;28;20434;-67
2022/11/10 05:40:07;;;;;;;;;;;10.40;99.90;;;;;;5015006;28;19921;-68
2022/11/10 05:42:32;;;;;;;;;;;10.40;99.90;;;;;;5014691;28;19933;-67
2022/11/10 05:44:58;;;;;;;;;;;10.60;99.90;;;;;;5012660;28;20020;-70
2022/11/10 05:47:24;;;;;;;;;;;10.20;99.90;;;;;;5013591;28;19933;-67
2022/11/10 05:49:49;;;;;;;;;;;10.40;99.90;;;;;;5014957;28;20011;-67
2022/11/10 05:52:15;;;;;;;;;;;10.50;99.90;;;;;;5022449;28;19921;-68
2022/11/10 05:54:40;;;;;;;;;;;10.50;99.90;;;;;;5032399;28;20383;-67
2022/11/10 05:57:06;;;;;;;;;;;10.40;99.90;;;;;;5033114;28;20383;-68
2022/11/10 05:59:31;;;;;;;;;;;10.30;99.90;;;;;;5020666;28;20302;-69
2022/11/10 06:01:57;;;;;;;;;;;10.50;99.90;;;;;;5013216;28;19926;-68
2022/11/10 06:04:22;;;;;;;;;;;10.60;99.90;;;;;;5012567;28;20403;-68
2022/11/10 06:06:48;;;;;;;;;;;10.20;99.90;;;;;;5013501;28;19921;-68
2022/11/10 06:09:13;;;;;;;;;;;10.40;99.90;;;;;;5015037;28;20025;-68
2022/11/10 06:11:39;;;;;;;;;;;10.50;99.90;;;;;;5014788;28;19928;-68
2022/11/10 06:14:04;;;;;;;;;;;10.30;99.90;;;;;;4997484;28;19925;-68
2022/11/10 06:16:30;;;;;;;;;;;10.60;99.90;;;;;;5015663;28;20048;-68
2022/11/10 06:18:55;;;;;;;;;;;10.30;99.90;;;;;;5014521;28;20383;-67
2022/11/10 06:21:21;;;;;;;;;;;10.60;99.90;;;;;;5014323;28;19971;-67
2022/11/10 06:23:46;;;;;;;;;;;10.30;99.90;;;;;;5012484;28;19922;-67
2022/11/10 06:26:11;;;;;;;;;;;10.20;99.90;;;;;;5013472;28;19964;-67
2022/11/10 06:28:37;;;;;;;;;;;10.40;99.90;;;;;;5014022;28;19921;-67
2022/11/10 06:31:02;;;;;;;;;;;10.40;99.90;;;;;;5013772;28;21102;-67
2022/11/10 06:33:28;;;;;;;;;;;10.20;99.90;;;;;;5013853;28;20331;-67
2022/11/10 06:35:54;;;;;;;;;;;10.10;99.90;;;;;;5011813;28;19921;-68
2022/11/10 06:38:19;;;;;;;;;;;10.20;99.90;;;;;;5014844;28;19928;-68
2022/11/10 06:40:45;;;;;;;;;;;10.30;99.90;;;;;;5023449;28;19925;-68
2022/11/10 06:43:11;;;;;;;;;;;;;;;;;;5032219;28;19932;-68
2022/11/10 06:45:36;;;;;;;;;;;10.10;99.90;;;;;;5018660;28;19929;-67
2022/11/10 06:48:04;;;;;;;;;;;10.40;99.90;;;;;;5014019;28;19925;-67
2022/11/10 06:50:29;;;;;;;;;;;10.30;99.90;;;;;;5012353;28;19927;-68
2022/11/10 06:52:55;;;;;;;;;;;;;;;;;;4996062;28;20008;-68
2022/11/10 06:55:21;;;;;;;;;;;10.30;99.90;;;;;;5011560;28;19928;-68
2022/11/10 06:57:47;;;;;;;;;;;10.30;99.90;;;;;;5026026;28;20349;-67
2022/11/10 07:00:12;;;;;;;;;;;10.40;99.90;;;;;;5031906;28;19944;-68
2022/11/10 07:02:38;;;;;;;;;;;10.30;99.90;;;;;;5031826;28;19925;-68
2022/11/10 07:05:04;;;;;;;;;;;10.50;99.90;;;;;;5032314;28;20050;-69
2022/11/10 07:07:29;;;;;;;;;;;10.40;99.90;;;;;;5021296;28;19929;-67
2022/11/10 07:09:55;;;;;;;;;;;;;;;;;;5013315;28;19922;-67
2022/11/10 07:12:20;;;;;;;;;;;10.50;99.90;;;;;;5012290;28;20318;-68
2022/11/10 07:14:46;;;;;;;;;;;10.60;99.90;;;;;;5029907;28;19933;-68
2022/11/10 07:17:11;;;;;;;;;;;10.40;99.90;;;;;;5033101;28;19921;-68
2022/11/10 07:19:37;;;;;;;;;;;10.50;99.90;;;;;;5031600;28;20335;-67
2022/11/10 07:22:02;;;;;;;;;;;10.60;99.90;;;;;;5032972;28;19929;-69
2022/11/10 07:24:29;;;;;;;;;;;10.40;99.90;;;;;;5008245;28;19968;-68
2022/11/10 07:26:56;;;;;;;;;;;10.50;99.90;;;;;;5020532;28;19925;-69
2022/11/10 07:29:22;;;;;;;;;;;;;;;;;;5025303;28;19968;-68
2022/11/10 07:31:47;;;;;;;;;;;10.50;99.90;;;;;;5002214;28;20411;-67
2022/11/10 07:34:13;;;;;;;;;;;;;;;;;;5021027;28;20672;-69
2022/11/10 07:36:39;;;;;;;;;;;10.50;99.90;;;;;;5018959;28;19925;-68
2022/11/10 07:39:04;;;;;;;;;;;10.40;99.90;;;;;;5018376;28;19929;-67
2022/11/10 07:41:30;;;;;;;;;;;10.30;99.90;;;;;;5024244;28;20200;-68
2022/11/10 07:43:55;;;;;;;;;;;;;;;;;;5025722;28;19960;-67
2022/11/10 07:46:21;;;;;;;;;;;10.30;99.90;;;;;;5026926;28;19979;-69
2022/11/10 07:48:46;;;;;;;;;;;10.60;99.90;;;;;;5026970;28;19921;-69
2022/11/10 07:51:12;;;;;;;;;;;10.70;99.90;;;;;;5029154;28;20281;-67
2022/11/10 07:53:38;;;;;;;;;;;10.70;99.90;;;;;;5037222;28;19924;-68
2022/11/10 07:56:04;;;;;;;;;;;10.60;99.90;;;;;;5039960;28;19966;-67
2022/11/10 07:58:31;;;;;;;;;;;10.90;99.90;;;;;;5034960;28;19925;-71
2022/11/10 08:00:56;;;;;;;;;;;10.90;99.90;;;;;;5026815;28;20371;-71
2022/11/10 08:03:22;;;;;;;;;;;10.90;99.90;;;;;;5030089;28;20058;-71
2022/11/10 08:05:47;;;;;;;;;;;10.90;99.90;;;;;;5023472;28;19928;-72
2022/11/10 08:08:13;;;;;;;;;;;11.20;99.90;;;;;;5030814;28;20299;-71
2022/11/10 08:10:39;;;;;;;;;;;11.20;99.90;;;;;;5024977;28;19921;-72
2022/11/10 08:13:06;;;;;;;;;;;11.10;99.90;;;;;;5011023;28;19929;-71
2022/11/10 08:15:32;;;;;;;;;;;11.20;99.90;;;;;;5011398;28;20418;-71
2022/11/10 08:17:59;;;;;;;;;;;11.30;99.90;;;;;;5012194;28;20403;-71
2022/11/10 08:20:24;;;;;;;;;;;11.20;99.90;;;;;;5023187;28;19925;-71
2022/11/10 08:22:54;;;;;;;;;;;11.30;99.90;;;;;;5011067;28;20446;-71
2022/11/10 08:25:20;;;;;;;;;;;11.60;99.90;;;;;;5010227;28;19922;-71
2022/11/10 08:27:45;;;;;;;;;;;11.40;99.90;;;;;;5011268;28;19972;-71
2022/11/10 08:30:11;;;;;;;;;;;12.10;99.90;;;;;;5012303;28;20424;-71
2022/11/10 08:32:37;;;;;;;;;;;11.10;99.90;;;;;;5014914;28;19922;-71
2022/11/10 08:35:02;;;;;;;;;;;11.00;99.90;;;;;;5018044;28;19933;-71
2022/11/10 08:37:28;;;;;;;;;;;11.30;99.90;;;;;;5020911;28;19965;-72
2022/11/10 08:39:53;;;;;;;;;;;11.40;99.90;;;;;;5018374;28;20329;-71
2022/11/10 08:42:19;;;;;;;;;;;11.60;99.90;;;;;;5014827;28;19929;-71
2022/11/10 08:44:44;;;;;;;;;;;11.30;99.90;;;;;;5015355;28;20288;-71
2022/11/10 08:47:10;;;;;;;;;;;11.50;99.90;;;;;;5014533;28;20128;-71
2022/11/10 08:49:35;;;;;;;;;;;11.60;99.90;;;;;;5015780;28;20277;-71
2022/11/10 08:52:01;;;;;;;;;;;11.50;99.90;;;;;;5034915;28;19928;-71
2022/11/10 08:54:26;;;;;;;;;;;11.80;99.90;;;;;;5033403;28;20357;-71
2022/11/10 08:56:52;;;;;;;;;;;11.60;99.90;;;;;;5023263;28;20016;-71
2022/11/10 08:59:17;;;;;;;;;;;11.60;99.90;;;;;;5014667;28;20303;-72
2022/11/10 09:01:43;;;;;;;;;;;12.80;99.90;;;;;;5022093;28;19929;-71
2022/11/10 09:04:08;;;;;;;;;;;12.10;99.90;;;;;;4997000;28;19925;-71
2022/11/10 09:06:34;;;;;;;;;;;12.10;99.90;;;;;;5014354;28;19928;-71
2022/11/10 09:08:59;;;;;;;;;;;12.30;99.90;;;;;;5014171;28;19922;-71
2022/11/10 09:11:25;;;;;;;;;;;12.30;99.90;;;;;;5014613;28;19969;-71
2022/11/10 09:13:50;;;;;;;;;;;12.30;99.90;;;;;;5017084;28;19925;-71
2022/11/10 09:16:16;;;;;;;;;;;12.40;99.90;;;;;;5014277;28;19921;-72
2022/11/10 09:18:41;;;;;;;;;;;12.30;99.90;;;;;;5015497;28;19922;-72
2022/11/10 09:21:10;;;;;;;;;;;13.00;99.90;;;;;;5014358;28;19972;-74
2022/11/10 09:23:36;;;;;;;;;;;12.50;99.90;;;;;;5021752;28;19921;-73
2022/11/10 09:26:05;;;;;;;;;;;12.40;99.90;;;;;;5022676;28;19982;-73
2022/11/10 09:28:30;;;;;;;;;;;12.40;99.90;;;;;;5023762;28;20427;-74
2022/11/10 09:30:56;;;;;;;;;;;;;;;;;;5017228;28;19928;-74
2022/11/10 09:33:21;;;;;;;;;;;12.30;99.90;;;;;;5005353;28;19921;-73
2022/11/10 09:35:47;;;;;;;;;;;12.20;99.90;;;;;;5022754;28;20411;-74
2022/11/10 09:38:13;;;;;;;;;;;12.20;99.90;;;;;;5006170;28;19926;-74
2022/11/10 09:41:01;;;;;;;;;;;12.40;99.90;;;;;;5033862;28;20421;-74
2022/11/10 09:43:27;;;;;;;;;;;12.30;99.90;;;;;;5016504;28;19930;-74
2022/11/10 09:45:54;;;;;;;;;;;12.60;99.90;;;;;;5015120;28;19929;-74
2022/11/10 09:48:30;;;;;;;;;;;12.40;99.90;;;;;;5032876;28;19925;-74
2022/11/10 09:51:05;;;;;;;;;;;12.70;99.90;;;;;;5034522;28;19927;-74
2022/11/10 09:53:36;;;;;;;;;;;12.80;99.90;;;;;;5033704;28;20332;-74
2022/11/10 09:56:02;;;;;;;;;;;12.60;99.90;;;;;;5052706;28;19920;-73
2022/11/10 09:58:37;;;;;;;;;;;12.80;99.90;;;;;;5052326;28;19927;-74
2022/11/10 10:01:06;;;;;;;;;;;12.80;99.90;;;;;;5019814;28;19980;-74
2022/11/10 10:03:33;;;;;;;;;;;12.90;99.90;;;;;;5013845;28;19962;-74
2022/11/10 10:06:01;;;;;;;;;;;12.80;99.90;;;;;;5027997;28;19925;-74
2022/11/10 10:08:41;;;;;;;;;;;12.70;99.90;;;;;;5031960;28;19921;-74
2022/11/10 10:11:10;;;;;;;;;;;13.00;99.90;;;;;;5011194;28;19928;-74
2022/11/10 10:14:02;;;;;;;;;;;12.80;99.90;;;;;;5025009;28;19921;-74
2022/11/10 10:16:43;;;;;;;;;;;13.40;99.90;;;;;;5012160;28;19945;-73
2022/11/10 10:19:11;;;;;;;;;;;13.40;99.90;;;;;;5012238;28;19921;-73
2022/11/10 10:21:56;;;;;;;;;;;13.40;99.90;;;;;;5012109;28;19949;-73
2022/11/10 10:24:22;;;;;;;;;;;13.10;99.90;;;;;;5011021;28;20407;-73
2022/11/10 10:26:52;;;;;;;;;;;13.10;99.90;;;;;;5031284;28;19928;-73
2022/11/10 10:29:20;;;;;;;;;;;13.40;99.90;;;;;;5010786;28;20299;-73
2022/11/10 10:31:50;;;;;;;;;;;13.10;99.90;;;;;;5026957;28;19928;-74
2022/11/10 10:34:17;;;;;;;;;;;13.00;99.90;;;;;;5014141;28;20283;-74
2022/11/10 10:36:44;;;;;;;;;;;13.10;99.90;;;;;;5032997;28;19968;-73
2022/11/10 10:39:12;;;;;;;;;;;13.00;99.90;;;;;;5032631;28;19921;-73
2022/11/10 10:41:37;;;;;;;;;;;13.30;99.90;;;;;;5026256;28;20419;-73
2022/11/10 10:44:09;;;;;;;;;;;14.10;99.90;;;;;;5011087;28;19935;-73
2022/11/10 10:46:43;;;;;;;;;;;13.20;99.90;;;;;;5012193;28;20008;-74
2022/11/10 10:49:18;;;;;;;;;;;13.30;99.90;;;;;;4995043;28;19976;-73
2022/11/10 10:51:43;;;;;;;;;;;13.30;99.90;;;;;;5004806;28;19980;-74
2022/11/10 10:54:21;;;;;;;;;;;13.30;99.90;;;;;;5036277;28;19925;-72
2022/11/10 10:56:47;;;;;;;;;;;13.30;99.90;;;;;;5041045;28;19922;-73
2022/11/10 10:59:17;;;;;;;;;;;13.10;99.90;;;;;;5038654;28;19922;-73
2022/11/10 11:01:43;;;;;;;;;;;14.70;99.90;;;;;;5022035;28;20094;-74
2022/11/10 11:04:25;;;;;;;;;;;13.00;99.90;;;;;;5017869;28;19988;-74
2022/11/10 11:06:59;;;;;;;;;;;13.40;99.90;;;;;;5021494;28;19922;-74
2022/11/10 11:09:39;;;;;;;;;;;13.40;99.90;;;;;;5031377;28;19921;-74
2022/11/10 11:12:05;;;;;;;;;;;;;;;;;;5014371;28;20003;-73
2022/11/10 11:14:31;;;;;;;;;;;13.10;99.90;;;;;;5013313;28;19960;-74
2022/11/10 11:17:01;;;;;;;;;;;13.20;99.90;;;;;;5031821;28;20367;-74
2022/11/10 11:19:31;;;;;;;;;;;13.20;99.90;;;;;;5029601;28;20318;-74
2022/11/10 11:22:15;;;;;;;;;;;13.20;99.90;;;;;;5031799;28;19947;-73
2022/11/10 11:24:49;;;;;;;;;;;13.20;99.90;;;;;;5031496;28;19956;-73
2022/11/10 11:27:27;;;;;;;;;;;13.10;99.90;;;;;;5031314;28;19928;-74
2022/11/10 11:30:00;;;;;;;;;;;13.10;99.90;;;;;;5014761;28;20379;-74
2022/11/10 11:32:37;;;;;;;;;;;13.40;99.90;;;;;;5013380;28;19929;-74
2022/11/10 11:35:09;;;;;;;;;;;13.50;99.90;;;;;;4993855;28;19922;-74
2022/11/10 11:37:42;;;;;;;;;;;13.30;99.90;;;;;;5011088;28;19928;-74
2022/11/10 11:40:16;;;;;;;;;;;13.20;99.90;;;;;;5026240;28;19921;-74
2022/11/10 11:43:00;;;;;;;;;;;13.30;99.90;;;;;;5022766;28;20411;-74
2022/11/10 11:45:32;;;;;;;;;;;13.20;99.90;;;;;;5013021;28;19987;-73
2022/11/10 11:48:09;;;;;;;;;;;13.30;99.90;;;;;;5031719;28;19955;-73
2022/11/10 11:50:49;;;;;;;;;;;13.10;99.90;;;;;;5019544;28;19936;-75
2022/11/10 11:53:21;;;;;;;;;;;13.20;99.90;;;;;;5027480;28;19925;-74
2022/11/10 11:56:06;;;;;;;;;;;13.20;99.90;;;;;;5027480;28;19928;-74
2022/11/10 11:58:31;;;;;;;;;;;13.30;99.90;;;;;;5029474;28;19968;-75
2022/11/10 12:01:00;;;;;;;;;;;13.20;99.90;;;;;;5019795;28;19968;-74
2022/11/10 12:03:46;;;;;;;;;;;13.10;99.90;;;;;;5016776;28;20641;-74
2022/11/10 12:06:25;;;;;;;;;;;13.30;99.90;;;;;;5017445;28;19921;-75
2022/11/10 12:09:05;;;;;;;;;;;13.40;99.90;;;;;;5016030;28;19978;-75
2022/11/10 12:11:48;;;;;;;;;;;13.20;99.90;;;;;;5015564;28;19931;-75
2022/11/10 12:14:30;;;;;;;;;;;13.30;99.90;;;;;;5031732;28;19924;-74
2022/11/10 12:17:19;;;;;;;;;;;13.40;99.90;;;;;;5028095;28;19952;-75
2022/11/10 12:19:54;;;;;;;;;;;13.40;99.90;;;;;;5015267;28;19929;-76
2022/11/10 12:22:22;;;;;;;;;;;14.60;99.90;;;;;;5014830;28;19984;-75
2022/11/10 12:25:05;;;;;;;;;;;13.50;99.90;;;;;;5026731;28;19927;-75
2022/11/10 12:27:33;;;;;;;;;;;13.50;99.90;;;;;;5068198;22;19963;-76
2022/11/10 12:30:02;;;;;;;;;;;13.60;99.90;;;;;;5042856;28;20008;-76
2022/11/10 12:32:42;;;;;;;;;;;13.50;99.90;;;;;;5048768;28;19920;-76
2022/11/10 12:35:21;;;;;;;;;;;13.50;99.90;;;;;;5048024;28;19920;-76
2022/11/10 12:37:53;;;;;;;;;;;13.50;99.90;;;;;;5047583;28;19921;-75
2022/11/10 12:40:24;;;;;;;;;;;13.70;99.90;;;;;;5049453;28;20015;-76
2022/11/10 12:42:53;;;;;;;;;;;13.50;99.90;;;;;;5032200;28;19936;-75
2022/11/10 12:45:31;;;;;;;;;;;13.40;99.90;;;;;;5030271;28;19940;-75
2022/11/10 12:47:57;;;;;;;;;;;13.60;99.90;;;;;;5013154;28;19921;-75
2022/11/10 12:50:23;;;;;;;;;;;13.40;99.90;;;;;;5029722;28;20307;-75
2022/11/10 12:52:52;;;;;;;;;;;13.40;99.90;;;;;;5023354;28;20015;-75
2022/11/10 12:55:19;;;;;;;;;;;13.50;99.90;;;;;;5016926;28;19956;-76
2022/11/10 12:57:44;;;;;;;;;;;13.50;99.90;;;;;;5051141;28;20007;-75
2022/11/10 13:00:36;;;;;;;;;;;13.50;99.90;;;;;;5040047;28;20451;-75
2022/11/10 13:03:02;;;;;;;;;;;13.40;99.90;;;;;;5047922;28;19925;-75
2022/11/10 13:05:30;;;;;;;;;;;13.50;99.90;;;;;;5048972;28;20024;-75
2022/11/10 13:08:26;;;;;;;;;;;13.40;99.90;;;;;;5032281;28;19921;-75
2022/11/10 13:10:56;;;;;;;;;;;13.40;99.90;;;;;;5028513;28;19972;-75
2022/11/10 13:13:22;;;;;;;;;;;13.70;99.90;;;;;;5041535;28;20402;-75
2022/11/10 13:15:50;;;;;;;;;;;13.60;99.90;;;;;;5028666;28;20358;-75
2022/11/10 13:18:24;;;;;;;;;;;13.30;99.90;;;;;;5030917;28;19964;-75
2022/11/10 13:20:53;;;;;;;;;;;13.70;99.90;;;;;;5048947;28;19921;-75
2022/11/10 13:23:19;;;;;;;;;;;13.80;99.90;;;;;;5035511;28;19933;-75
2022/11/10 13:26:00;;;;;;;;;;;13.80;99.90;;;;;;5052959;28;19932;-76
2022/11/10 13:28:45;;;;;;;;;;;13.60;99.90;;;;;;5034337;28;19936;-75
2022/11/10 13:31:25;;;;;;;;;;;13.50;99.90;;;;;;5045961;28;20451;-76
2022/11/10 13:34:03;;;;;;;;;;;13.60;99.90;;;;;;5025322;28;20012;-76
2022/11/10 13:36:41;;;;;;;;;;;13.80;99.90;;;;;;5032741;28;19925;-76
2022/11/10 13:39:24;;;;;;;;;;;13.80;99.90;;;;;;5034304;28;20314;-75
2022/11/10 13:42:08;;;;;;;;;;;13.90;99.90;;;;;;5033305;28;19959;-75
2022/11/10 13:44:38;;;;;;;;;;;13.70;99.90;;;;;;5032167;28;19921;-76
2022/11/10 13:47:07;;;;;;;;;;;13.70;99.90;;;;;;5032576;28;20355;-76
2022/11/10 13:49:47;;;;;;;;;;;13.90;99.90;;;;;;5040916;28;19920;-75
2022/11/10 13:52:32;;;;;;;;;;;13.80;99.90;;;;;;5049250;28;19924;-75
2022/11/10 13:55:16;;;;;;;;;;;14.00;99.90;;;;;;5047267;28;20410;-75
2022/11/10 13:57:57;;;;;;;;;;;13.80;99.90;;;;;;5044663;28;19921;-75
2022/11/10 14:00:25;;;;;;;;;;;13.90;99.90;;;;;;5019656;28;19925;-75
2022/11/10 14:02:52;;;;;;;;;;;14.00;99.90;;;;;;5032150;28;19975;-75
2022/11/10 14:05:27;;;;;;;;;;;14.00;99.90;;;;;;5030972;28;20535;-74
2022/11/10 14:07:56;;;;;;;;;;;13.90;99.90;;;;;;5032005;28;19924;-75
2022/11/10 14:10:32;;;;;;;;;;;13.90;99.90;;;;;;5032140;28;19925;-74
2022/11/10 14:13:04;;;;;;;;;;;13.80;99.90;;;;;;5031953;28;19921;-74
2022/11/10 14:15:41;;;;;;;;;;;13.80;99.90;;;;;;5051142;28;20271;-74
2022/11/10 14:18:16;;;;;;;;;;;14.00;99.90;;;;;;5032959;28;19929;-75
2022/11/10 14:20:43;;;;;;;;;;;13.80;99.90;;;;;;5032001;28;20337;-75
2022/11/10 14:23:18;;;;;;;;;;;14.70;99.90;;;;;;5039076;28;19972;-75
2022/11/10 14:25:44;;;;;;;;;;;13.70;99.90;;;;;;5047497;28;19925;-74
2022/11/10 14:28:25;;;;;;;;;;;14.10;99.90;;;;;;5051997;28;19921;-75
2022/11/10 14:30:52;;;;;;;;;;;13.80;99.90;;;;;;5034325;28;20062;-74
2022/11/10 14:33:18;;;;;;;;;;;13.90;99.90;;;;;;5031428;28;19921;-75
2022/11/10 14:35:46;;;;;;;;;;;13.80;99.90;;;;;;5030630;28;19925;-75
2022/11/10 14:38:19;;;;;;;;;;;13.80;99.90;;;;;;5037105;28;19927;-75
2022/11/10 14:40:45;;;;;;;;;;;13.80;99.90;;;;;;5051783;28;19921;-75
2022/11/10 14:43:29;;;;;;;;;;;13.90;99.90;;;;;;5045908;28;19980;-75